createdAt,value
2023-02-04T00:00:35.372Z,1006.97
2023-02-04T00:01:35.367Z,1007.14
2023-02-04T00:02:35.390Z,1007.05
2023-02-04T00:03:35.338Z,1007.05
2023-02-04T00:04:35.328Z,1007.04
2023-02-04T00:05:35.406Z,1007.00
2023-02-04T00:06:35.314Z,1007.07
2023-02-04T00:07:35.305Z,1007.07
2023-02-04T00:08:35.288Z,1007.10
2023-02-04T00:09:35.271Z,1007.16
2023-02-04T00:10:35.291Z,1007.14
2023-02-04T00:11:35.263Z,1007.18
2023-02-04T00:12:35.252Z,1007.08
2023-02-04T00:13:35.230Z,1007.12
2023-02-04T00:14:35.231Z,1007.09
2023-02-04T00:15:35.219Z,1007.16
2023-02-04T00:16:35.229Z,1007.19
2023-02-04T00:17:35.188Z,1007.27
2023-02-04T00:18:35.185Z,1007.29
2023-02-04T00:19:35.170Z,1007.25
2023-02-04T00:20:35.179Z,1007.27
2023-02-04T00:21:35.381Z,1007.34
2023-02-04T00:22:35.152Z,1007.41
2023-02-04T00:23:35.138Z,1007.46
2023-02-04T00:24:35.123Z,1007.47
2023-02-04T00:25:35.176Z,1007.52
2023-02-04T00:26:35.112Z,1007.54
2023-02-04T00:27:35.097Z,1007.56
2023-02-04T00:28:35.096Z,1007.62
2023-02-04T00:29:35.071Z,1007.67
2023-02-04T00:30:35.063Z,1007.66
2023-02-04T00:31:35.186Z,1007.73
2023-02-04T00:32:35.039Z,1007.80
2023-02-04T00:33:35.042Z,1007.82
2023-02-04T00:34:35.026Z,1007.84
2023-02-04T00:35:35.004Z,1007.88
2023-02-04T00:36:35.040Z,1007.92
2023-02-04T00:37:35.004Z,1007.98
2023-02-04T00:38:34.985Z,1007.98
2023-02-04T00:39:35.078Z,1008.02
2023-02-04T00:40:34.959Z,1008.05
2023-02-04T00:41:34.965Z,1008.10
2023-02-04T00:42:34.955Z,1008.06
2023-02-04T00:43:35.047Z,1008.11
2023-02-04T00:44:34.918Z,1008.07
2023-02-04T00:45:34.957Z,1008.03
2023-02-04T00:46:35.036Z,1007.91
2023-02-04T00:47:34.900Z,1007.77
2023-02-04T00:48:34.883Z,1007.85
2023-02-04T00:49:34.868Z,1007.95
2023-02-04T00:50:34.953Z,1007.91
2023-02-04T00:51:34.945Z,1008.00
2023-02-04T00:52:34.850Z,1007.95
2023-02-04T00:53:34.868Z,1007.86
2023-02-04T00:54:34.845Z,1007.93
2023-02-04T00:55:34.802Z,1008.01
2023-02-04T00:56:34.840Z,1008.02
2023-02-04T00:57:34.803Z,1008.11
2023-02-04T00:58:34.791Z,1008.13
2023-02-04T00:59:34.760Z,1008.18
2023-02-04T01:00:34.793Z,1008.17
2023-02-04T01:01:34.740Z,1008.19
2023-02-04T01:02:34.789Z,1008.16
2023-02-04T01:03:34.718Z,1008.18
2023-02-04T01:04:34.717Z,1008.15
2023-02-04T01:05:34.700Z,1008.16
2023-02-04T01:06:34.696Z,1008.17
2023-02-04T01:07:34.724Z,1008.18
2023-02-04T01:08:34.683Z,1008.19
2023-02-04T01:09:34.657Z,1008.19
2023-02-04T01:10:34.656Z,1008.20
2023-02-04T01:11:34.642Z,1008.24
2023-02-04T01:12:34.644Z,1008.29
2023-02-04T01:13:34.622Z,1008.31
2023-02-04T01:14:34.657Z,1008.35
2023-02-04T01:15:34.599Z,1008.34
2023-02-04T01:16:34.693Z,1008.35
2023-02-04T01:17:34.600Z,1008.38
2023-02-04T01:18:34.597Z,1008.39
2023-02-04T01:19:34.559Z,1008.39
2023-02-04T01:20:34.551Z,1008.40
2023-02-04T01:21:34.537Z,1008.39
2023-02-04T01:22:34.534Z,1008.37
2023-02-04T01:23:34.521Z,1008.41
2023-02-04T01:24:34.515Z,1008.41
2023-02-04T01:25:34.495Z,1008.45
2023-02-04T01:26:34.491Z,1008.50
2023-02-04T01:27:34.642Z,1008.52
2023-02-04T01:28:34.474Z,1008.54
2023-02-04T01:29:34.454Z,1008.55
2023-02-04T01:30:34.487Z,1008.58
2023-02-04T01:31:34.450Z,1008.56
2023-02-04T01:32:34.436Z,1008.56
2023-02-04T01:34:46.236Z,1008.59
2023-02-04T01:35:47.218Z,1008.62
2023-02-04T01:36:47.217Z,1008.65
2023-02-04T01:37:47.204Z,1008.70
2023-02-04T01:38:47.189Z,1008.73
2023-02-04T01:39:47.175Z,1008.75
2023-02-04T01:40:47.172Z,1008.75
2023-02-04T01:41:47.166Z,1008.76
2023-02-04T01:42:47.152Z,1008.74
2023-02-04T01:43:47.201Z,1008.77
2023-02-04T01:44:47.130Z,1008.81
2023-02-04T01:45:47.139Z,1008.83
2023-02-04T01:46:47.122Z,1008.88
2023-02-04T01:47:47.103Z,1008.89
2023-02-04T01:48:47.096Z,1008.92
2023-02-04T01:49:47.101Z,1008.93
2023-02-04T01:50:47.074Z,1008.94
2023-02-04T01:51:47.056Z,1008.93
2023-02-04T01:52:47.047Z,1008.96
2023-02-04T01:53:47.042Z,1009.00
2023-02-04T01:54:47.024Z,1008.98
2023-02-04T01:55:47.013Z,1008.99
2023-02-04T01:56:47.011Z,1009.06
2023-02-04T01:57:46.994Z,1009.00
2023-02-04T01:58:46.982Z,1009.06
2023-02-04T01:59:46.972Z,1009.08
2023-02-04T02:00:47.040Z,1009.10
2023-02-04T02:01:46.973Z,1009.08
2023-02-04T02:02:46.943Z,1009.09
2023-02-04T02:03:46.933Z,1009.07
2023-02-04T02:04:46.940Z,1009.12
2023-02-04T02:05:46.912Z,1009.13
2023-02-04T02:06:46.914Z,1009.12
2023-02-04T02:07:46.921Z,1009.15
2023-02-04T02:08:46.888Z,1009.11
2023-02-04T02:09:46.883Z,1009.12
2023-02-04T02:10:46.891Z,1009.11
2023-02-04T02:11:46.889Z,1009.08
2023-02-04T02:12:46.846Z,1009.07
2023-02-04T02:13:46.824Z,1009.07
2023-02-04T02:14:46.820Z,1009.11
2023-02-04T02:15:46.804Z,1009.14
2023-02-04T02:16:46.902Z,1009.14
2023-02-04T02:17:46.784Z,1009.18
2023-02-04T02:18:46.779Z,1009.20
2023-02-04T02:19:46.772Z,1009.19
2023-02-04T02:20:46.781Z,1009.17
2023-02-04T02:21:46.766Z,1009.19
2023-02-04T02:22:46.737Z,1009.21
2023-02-04T02:23:46.720Z,1009.16
2023-02-04T02:24:46.716Z,1009.12
2023-02-04T02:25:46.701Z,1009.10
2023-02-04T02:26:46.721Z,1009.15
2023-02-04T02:27:46.719Z,1009.15
2023-02-04T02:28:46.688Z,1009.13
2023-02-04T02:29:46.677Z,1009.19
2023-02-04T02:30:46.732Z,1009.16
2023-02-04T02:31:46.801Z,1009.15
2023-02-04T02:32:46.634Z,1009.13
2023-02-04T02:33:46.629Z,1009.19
2023-02-04T02:34:46.619Z,1009.20
2023-02-04T02:35:46.598Z,1009.24
2023-02-04T02:36:46.662Z,1009.24
2023-02-04T02:37:46.583Z,1009.25
2023-02-04T02:38:46.582Z,1009.25
2023-02-04T02:39:46.557Z,1009.24
2023-02-04T02:40:46.647Z,1009.23
2023-02-04T02:41:46.566Z,1009.26
2023-02-04T02:42:46.632Z,1009.24
2023-02-04T02:43:46.520Z,1009.26
2023-02-04T02:44:46.514Z,1009.31
2023-02-04T02:45:46.651Z,1009.37
2023-02-04T02:46:46.526Z,1009.30
2023-02-04T02:47:46.481Z,1009.36
2023-02-04T02:48:46.479Z,1009.35
2023-02-04T02:49:46.450Z,1009.37
2023-02-04T02:50:46.442Z,1009.41
2023-02-04T02:51:46.427Z,1009.51
2023-02-04T02:52:46.428Z,1009.55
2023-02-04T02:53:46.408Z,1009.68
2023-02-04T02:54:46.399Z,1009.69
2023-02-04T02:55:46.396Z,1009.71
2023-02-04T02:56:46.383Z,1009.72
2023-02-04T02:57:46.392Z,1009.71
2023-02-04T02:58:46.358Z,1009.73
2023-02-04T02:59:46.346Z,1009.75
2023-02-04T03:00:46.337Z,1009.74
2023-02-04T03:01:46.346Z,1009.77
2023-02-04T03:02:46.368Z,1009.78
2023-02-04T03:03:46.306Z,1009.77
2023-02-04T03:04:46.296Z,1009.80
2023-02-04T03:05:46.288Z,1009.84
2023-02-04T03:06:46.277Z,1009.85
2023-02-04T03:07:46.261Z,1009.90
2023-02-04T03:08:46.253Z,1009.95
2023-02-04T03:09:46.240Z,1009.95
2023-02-04T03:10:46.235Z,1010.03
2023-02-04T03:11:46.215Z,1010.02
2023-02-04T03:12:46.217Z,1010.05
2023-02-04T03:13:46.194Z,1010.06
2023-02-04T03:14:46.199Z,1010.10
2023-02-04T03:15:46.252Z,1010.14
2023-02-04T03:16:46.169Z,1010.16
2023-02-04T03:17:46.170Z,1010.17
2023-02-04T03:18:46.152Z,1010.23
2023-02-04T03:19:46.158Z,1010.22
2023-02-04T03:20:46.139Z,1010.26
2023-02-04T03:21:46.114Z,1010.28
2023-02-04T03:22:46.112Z,1010.26
2023-02-04T03:23:46.093Z,1010.30
2023-02-04T03:24:46.106Z,1010.35
2023-02-04T03:25:46.081Z,1010.38
2023-02-04T03:26:46.071Z,1010.40
2023-02-04T03:27:46.194Z,1010.41
2023-02-04T03:28:46.048Z,1010.43
2023-02-04T03:29:46.048Z,1010.48
2023-02-04T03:30:46.056Z,1010.50
2023-02-04T03:31:46.149Z,1010.51
2023-02-04T03:32:46.017Z,1010.53
2023-02-04T03:33:45.994Z,1010.55
2023-02-04T03:34:45.993Z,1010.58
2023-02-04T03:35:45.973Z,1010.60
2023-02-04T03:36:45.974Z,1010.61
2023-02-04T03:37:45.963Z,1010.65
2023-02-04T03:38:45.949Z,1010.68
2023-02-04T03:39:45.938Z,1010.69
2023-02-04T03:40:45.927Z,1010.73
2023-02-04T03:41:45.917Z,1010.72
2023-02-04T03:42:45.934Z,1010.75
2023-02-04T03:43:45.892Z,1010.76
2023-02-04T03:44:45.893Z,1010.79
2023-02-04T03:45:46.097Z,1010.78
2023-02-04T03:46:45.874Z,1010.77
2023-02-04T03:47:45.852Z,1010.77
2023-02-04T03:48:45.845Z,1010.77
2023-02-04T03:49:45.833Z,1010.78
2023-02-04T03:50:45.829Z,1010.79
2023-02-04T03:51:45.809Z,1010.80
2023-02-04T03:52:45.812Z,1010.81
2023-02-04T03:53:45.786Z,1010.80
2023-02-04T03:54:45.782Z,1010.83
2023-02-04T03:55:45.767Z,1010.85
2023-02-04T03:56:45.759Z,1010.87
2023-02-04T03:57:45.752Z,1010.89
2023-02-04T03:58:45.743Z,1010.87
2023-02-04T03:59:45.732Z,1010.87
2023-02-04T04:00:45.720Z,1010.89
2023-02-04T04:01:45.788Z,1010.92
2023-02-04T04:02:45.849Z,1010.93
2023-02-04T04:03:45.685Z,1010.96
2023-02-04T04:04:45.681Z,1010.97
2023-02-04T04:05:45.673Z,1010.99
2023-02-04T04:06:45.660Z,1011.01
2023-02-04T04:07:45.674Z,1011.03
2023-02-04T04:08:45.637Z,1011.01
2023-02-04T04:09:45.626Z,1011.02
2023-02-04T04:10:45.623Z,1011.03
2023-02-04T04:11:45.613Z,1011.03
2023-02-04T04:12:45.613Z,1011.05
2023-02-04T04:13:45.586Z,1011.05
2023-02-04T04:14:45.601Z,1011.05
2023-02-04T04:15:45.670Z,1011.09
2023-02-04T04:16:45.555Z,1011.09
2023-02-04T04:17:45.559Z,1011.12
2023-02-04T04:18:45.537Z,1011.12
2023-02-04T04:19:45.558Z,1011.16
2023-02-04T04:20:45.654Z,1011.17
2023-02-04T04:21:45.512Z,1011.21
2023-02-04T04:22:45.513Z,1011.24
2023-02-04T04:23:45.477Z,1011.24
2023-02-04T04:24:45.475Z,1011.27
2023-02-04T04:25:45.455Z,1011.29
2023-02-04T04:26:45.452Z,1011.29
2023-02-04T04:27:45.461Z,1011.30
2023-02-04T04:28:45.434Z,1011.33
2023-02-04T04:29:45.443Z,1011.33
2023-02-04T04:30:45.426Z,1011.34
2023-02-04T04:31:45.494Z,1011.33
2023-02-04T04:32:45.394Z,1011.30
2023-02-04T04:33:45.372Z,1011.27
2023-02-04T04:34:45.368Z,1011.29
2023-02-04T04:35:45.347Z,1011.34
2023-02-04T04:36:45.342Z,1011.36
2023-02-04T04:37:45.332Z,1011.38
2023-02-04T04:38:45.321Z,1011.38
2023-02-04T04:39:45.308Z,1011.43
2023-02-04T04:40:45.302Z,1011.44
2023-02-04T04:41:45.287Z,1011.45
2023-02-04T04:42:45.303Z,1011.50
2023-02-04T04:43:45.261Z,1011.54
2023-02-04T04:44:45.267Z,1011.57
2023-02-04T04:45:45.253Z,1011.58
2023-02-04T04:46:45.253Z,1011.59
2023-02-04T04:47:45.386Z,1011.60
2023-02-04T04:48:45.213Z,1011.63
2023-02-04T04:49:45.207Z,1011.64
2023-02-04T04:50:45.190Z,1011.67
2023-02-04T04:51:45.185Z,1011.72
2023-02-04T04:52:45.307Z,1011.74
2023-02-04T04:53:45.171Z,1011.78
2023-02-04T04:54:45.147Z,1011.79
2023-02-04T04:55:45.143Z,1011.81
2023-02-04T04:56:45.132Z,1011.80
2023-02-04T04:57:45.127Z,1011.82
2023-02-04T04:58:45.108Z,1011.86
2023-02-04T04:59:45.107Z,1011.90
2023-02-04T05:00:45.101Z,1011.89
2023-02-04T05:01:45.082Z,1011.89
2023-02-04T05:02:45.076Z,1011.91
2023-02-04T05:03:45.070Z,1011.93
2023-02-04T05:04:45.101Z,1011.94
2023-02-04T05:05:45.040Z,1011.96
2023-02-04T05:06:45.033Z,1011.99
2023-02-04T05:07:45.024Z,1012.01
2023-02-04T05:08:45.005Z,1012.04
2023-02-04T05:09:45.014Z,1012.06
2023-02-04T05:10:44.991Z,1012.09
2023-02-04T05:11:44.986Z,1012.11
2023-02-04T05:12:45.158Z,1012.13
2023-02-04T05:13:44.964Z,1012.15
2023-02-04T05:14:44.949Z,1012.16
2023-02-04T05:15:44.941Z,1012.16
2023-02-04T05:16:44.924Z,1012.15
2023-02-04T05:17:44.964Z,1012.14
2023-02-04T05:18:44.916Z,1012.13
2023-02-04T05:19:44.909Z,1012.12
2023-02-04T05:20:44.890Z,1012.11
2023-02-04T05:21:44.879Z,1012.12
2023-02-04T05:22:44.884Z,1012.15
2023-02-04T05:23:44.860Z,1012.17
2023-02-04T05:24:44.847Z,1012.16
2023-02-04T05:25:44.845Z,1012.19
2023-02-04T05:26:44.829Z,1012.20
2023-02-04T05:27:44.906Z,1012.22
2023-02-04T05:28:44.802Z,1012.27
2023-02-04T05:29:44.800Z,1012.32
2023-02-04T05:30:44.795Z,1012.36
2023-02-04T05:31:44.794Z,1012.41
2023-02-04T05:32:44.761Z,1012.46
2023-02-04T05:33:44.759Z,1012.47
2023-02-04T05:34:44.745Z,1012.54
2023-02-04T05:35:44.775Z,1012.55
2023-02-04T05:36:44.723Z,1012.62
2023-02-04T05:37:44.723Z,1012.68
2023-02-04T05:38:44.871Z,1012.71
2023-02-04T05:39:44.696Z,1012.66
2023-02-04T05:40:44.691Z,1012.62
2023-02-04T05:41:44.682Z,1012.60
2023-02-04T05:42:44.657Z,1012.73
2023-02-04T05:43:44.658Z,1012.76
2023-02-04T05:44:44.637Z,1012.77
2023-02-04T05:45:44.740Z,1012.78
2023-02-04T05:46:44.636Z,1012.75
2023-02-04T05:47:44.628Z,1012.80
2023-02-04T05:48:44.602Z,1012.82
2023-02-04T05:49:44.592Z,1012.86
2023-02-04T05:50:44.573Z,1012.92
2023-02-04T05:51:44.569Z,1012.87
2023-02-04T05:52:44.556Z,1012.93
2023-02-04T05:53:44.561Z,1012.93
2023-02-04T05:54:44.532Z,1012.91
2023-02-04T05:55:44.535Z,1012.91
2023-02-04T05:56:44.516Z,1012.90
2023-02-04T05:57:44.509Z,1012.91
2023-02-04T05:58:44.504Z,1012.93
2023-02-04T05:59:44.485Z,1012.93
2023-02-04T06:00:44.470Z,1012.92
2023-02-04T06:01:44.468Z,1012.94
2023-02-04T06:02:44.454Z,1012.94
2023-02-04T06:03:44.451Z,1012.95
2023-02-04T06:04:44.953Z,1012.90
2023-02-04T06:05:44.423Z,1012.90
2023-02-04T06:06:44.408Z,1012.92
2023-02-04T06:07:44.401Z,1012.90
2023-02-04T06:08:44.394Z,1012.94
2023-02-04T06:09:44.389Z,1012.96
2023-02-04T06:10:44.372Z,1012.96
2023-02-04T06:11:44.364Z,1012.91
2023-02-04T06:12:44.350Z,1012.90
2023-02-04T06:13:44.348Z,1012.90
2023-02-04T06:14:44.326Z,1012.93
2023-02-04T06:15:44.281Z,1012.97
2023-02-04T06:16:44.386Z,1012.99
2023-02-04T06:17:44.261Z,1013.02
2023-02-04T06:18:44.234Z,1013.05
2023-02-04T06:19:44.228Z,1013.05
2023-02-04T06:20:44.264Z,1013.07
2023-02-04T06:21:44.263Z,1013.11
2023-02-04T06:22:44.245Z,1013.14
2023-02-04T06:23:44.252Z,1013.15
2023-02-04T06:24:45.642Z,1013.20
2023-02-04T06:25:44.181Z,1013.23
2023-02-04T06:26:44.160Z,1013.26
2023-02-04T06:27:44.169Z,1013.32
2023-02-04T06:28:44.134Z,1013.33
2023-02-04T06:29:44.122Z,1013.34
2023-02-04T06:30:44.249Z,1013.36
2023-02-04T06:31:44.252Z,1013.36
2023-02-04T06:32:44.087Z,1013.37
2023-02-04T06:33:44.090Z,1013.38
2023-02-04T06:34:44.067Z,1013.37
2023-02-04T06:35:44.061Z,1013.39
2023-02-04T06:36:44.050Z,1013.41
2023-02-04T06:37:44.040Z,1013.45
2023-02-04T06:38:44.031Z,1013.45
2023-02-04T06:39:44.020Z,1013.44
2023-02-04T06:40:44.011Z,1013.44
2023-02-04T06:41:44.002Z,1013.45
2023-02-04T06:42:43.990Z,1013.51
2023-02-04T06:43:43.982Z,1013.53
2023-02-04T06:44:43.963Z,1013.53
2023-02-04T06:45:44.017Z,1013.52
2023-02-04T06:46:43.950Z,1013.48
2023-02-04T06:47:43.945Z,1013.46
2023-02-04T06:48:43.943Z,1013.47
2023-02-04T06:49:43.926Z,1013.47
2023-02-04T06:50:43.904Z,1013.48
2023-02-04T06:51:43.906Z,1013.49
2023-02-04T06:52:43.894Z,1013.50
2023-02-04T06:53:43.881Z,1013.53
2023-02-04T06:54:43.866Z,1013.59
2023-02-04T06:55:43.862Z,1013.64
2023-02-04T06:56:43.846Z,1013.68
2023-02-04T06:57:43.839Z,1013.69
2023-02-04T06:58:43.831Z,1013.72
2023-02-04T06:59:43.819Z,1013.75
2023-02-04T07:00:43.802Z,1013.78
2023-02-04T07:01:43.833Z,1013.82
2023-02-04T07:02:43.801Z,1013.84
2023-02-04T07:03:43.782Z,1013.85
2023-02-04T07:04:43.777Z,1013.86
2023-02-04T07:05:43.763Z,1013.87
2023-02-04T07:06:43.740Z,1013.86
2023-02-04T07:07:43.741Z,1013.85
2023-02-04T07:08:43.726Z,1013.86
2023-02-04T07:09:43.719Z,1013.87
2023-02-04T07:10:43.705Z,1013.86
2023-02-04T07:11:43.699Z,1013.85
2023-02-04T07:12:43.684Z,1013.86
2023-02-04T07:13:43.684Z,1013.87
2023-02-04T07:14:43.667Z,1013.90
2023-02-04T07:15:43.706Z,1013.93
2023-02-04T07:16:43.672Z,1013.95
2023-02-04T07:17:43.638Z,1013.97
2023-02-04T07:18:43.623Z,1013.98
2023-02-04T07:19:43.617Z,1013.99
2023-02-04T07:20:43.601Z,1014.00
2023-02-04T07:21:43.599Z,1013.99
2023-02-04T07:22:43.582Z,1013.98
2023-02-04T07:23:43.586Z,1013.99
2023-02-04T07:24:43.559Z,1014.02
2023-02-04T07:25:43.551Z,1014.05
2023-02-04T07:26:43.551Z,1014.07
2023-02-04T07:27:43.547Z,1014.07
2023-02-04T07:28:43.521Z,1014.08
2023-02-04T07:29:43.514Z,1014.09
2023-02-04T07:30:43.625Z,1014.10
2023-02-04T07:31:43.736Z,1014.11
2023-02-04T07:32:43.479Z,1014.12
2023-02-04T07:33:43.474Z,1014.12
2023-02-04T07:34:43.474Z,1014.14
2023-02-04T07:35:43.454Z,1014.16
2023-02-04T07:36:43.464Z,1014.16
2023-02-04T07:37:43.433Z,1014.16
2023-02-04T07:38:43.429Z,1014.15
2023-02-04T07:39:43.406Z,1014.14
2023-02-04T07:40:43.388Z,1014.14
2023-02-04T07:41:43.393Z,1014.16
2023-02-04T07:42:43.367Z,1014.19
2023-02-04T07:43:43.364Z,1014.19
2023-02-04T07:44:43.347Z,1014.20
2023-02-04T07:45:43.342Z,1014.24
2023-02-04T07:46:43.388Z,1014.27
2023-02-04T07:47:43.322Z,1014.28
2023-02-04T07:48:43.312Z,1014.30
2023-02-04T07:49:43.300Z,1014.32
2023-02-04T07:50:43.281Z,1014.34
2023-02-04T07:51:43.282Z,1014.36
2023-02-04T07:52:43.266Z,1014.37
2023-02-04T07:53:43.267Z,1014.36
2023-02-04T07:54:43.239Z,1014.36
2023-02-04T07:55:43.233Z,1014.37
2023-02-04T07:56:43.219Z,1014.39
2023-02-04T07:57:43.213Z,1014.39
2023-02-04T07:58:43.203Z,1014.40
2023-02-04T07:59:43.191Z,1014.41
2023-02-04T08:00:43.203Z,1014.43
2023-02-04T08:01:43.194Z,1014.47
2023-02-04T08:02:43.276Z,1014.50
2023-02-04T08:03:43.155Z,1014.53
2023-02-04T08:04:43.136Z,1014.56
2023-02-04T08:05:43.137Z,1014.59
2023-02-04T08:06:43.130Z,1014.59
2023-02-04T08:07:43.106Z,1014.58
2023-02-04T08:08:43.100Z,1014.58
2023-02-04T08:09:43.085Z,1014.59
2023-02-04T08:10:43.078Z,1014.61
2023-02-04T08:11:43.065Z,1014.62
2023-02-04T08:12:43.054Z,1014.62
2023-02-04T08:13:43.059Z,1014.64
2023-02-04T08:14:43.030Z,1014.66
2023-02-04T08:15:43.073Z,1014.68
2023-02-04T08:16:43.015Z,1014.73
2023-02-04T08:17:43.003Z,1014.76
2023-02-04T08:18:43.040Z,1014.78
2023-02-04T08:19:42.982Z,1014.80
2023-02-04T08:20:42.966Z,1014.81
2023-02-04T08:21:42.959Z,1014.84
2023-02-04T08:22:42.955Z,1014.85
2023-02-04T08:23:42.957Z,1014.86
2023-02-04T08:24:42.925Z,1014.87
2023-02-04T08:25:42.919Z,1014.88
2023-02-04T08:26:42.903Z,1014.90
2023-02-04T08:27:42.950Z,1014.90
2023-02-04T08:28:43.610Z,1014.90
2023-02-04T08:29:42.877Z,1014.91
2023-02-04T08:30:42.922Z,1014.91
2023-02-04T08:31:42.901Z,1014.90
2023-02-04T08:32:42.843Z,1014.88
2023-02-04T08:33:42.850Z,1014.87
2023-02-04T08:34:42.820Z,1014.86
2023-02-04T08:35:42.819Z,1014.86
2023-02-04T08:36:42.800Z,1014.84
2023-02-04T08:37:42.805Z,1014.83
2023-02-04T08:38:42.790Z,1014.85
2023-02-04T08:39:42.776Z,1014.85
2023-02-04T08:40:42.759Z,1014.85
2023-02-04T08:41:42.753Z,1014.85
2023-02-04T08:42:42.741Z,1014.86
2023-02-04T08:43:42.731Z,1014.87
2023-02-04T08:44:42.721Z,1014.90
2023-02-04T08:45:42.716Z,1014.92
2023-02-04T08:46:42.746Z,1014.93
2023-02-04T08:47:42.704Z,1014.93
2023-02-04T08:48:42.685Z,1014.92
2023-02-04T08:49:42.697Z,1014.89
2023-02-04T08:50:42.670Z,1014.88
2023-02-04T08:51:42.666Z,1014.87
2023-02-04T08:52:42.658Z,1014.88
2023-02-04T08:53:42.652Z,1014.91
2023-02-04T08:54:42.639Z,1014.93
2023-02-04T08:55:42.634Z,1014.95
2023-02-04T08:56:42.620Z,1014.97
2023-02-04T08:57:42.613Z,1014.96
2023-02-04T08:58:42.598Z,1014.99
2023-02-04T08:59:42.594Z,1015.01
2023-02-04T09:00:42.605Z,1015.02
2023-02-04T09:01:42.642Z,1015.03
2023-02-04T09:02:42.563Z,1015.04
2023-02-04T09:03:42.546Z,1015.05
2023-02-04T09:04:42.550Z,1015.05
2023-02-04T09:05:42.536Z,1015.07
2023-02-04T09:06:42.527Z,1015.10
2023-02-04T09:07:42.516Z,1015.10
2023-02-04T09:08:42.517Z,1015.09
2023-02-04T09:09:42.498Z,1015.07
2023-02-04T09:10:42.487Z,1015.07
2023-02-04T09:11:42.472Z,1015.07
2023-02-04T09:12:42.464Z,1015.09
2023-02-04T09:13:42.449Z,1015.08
2023-02-04T09:14:42.446Z,1015.11
2023-02-04T09:15:42.436Z,1015.13
2023-02-04T09:16:42.464Z,1015.13
2023-02-04T09:17:42.410Z,1015.14
2023-02-04T09:18:42.402Z,1015.13
2023-02-04T09:19:42.390Z,1015.15
2023-02-04T09:20:42.382Z,1015.17
2023-02-04T09:21:42.369Z,1015.20
2023-02-04T09:22:42.368Z,1015.22
2023-02-04T09:23:42.352Z,1015.25
2023-02-04T09:24:42.356Z,1015.26
2023-02-04T09:25:42.331Z,1015.28
2023-02-04T09:26:42.324Z,1015.32
2023-02-04T09:27:42.318Z,1015.35
2023-02-04T09:28:42.302Z,1015.35
2023-02-04T09:29:42.304Z,1015.34
2023-02-04T09:30:42.366Z,1015.35
2023-02-04T09:31:42.288Z,1015.38
2023-02-04T09:32:42.263Z,1015.42
2023-02-04T09:33:42.248Z,1015.45
2023-02-04T09:34:42.259Z,1015.46
2023-02-04T09:35:42.230Z,1015.47
2023-02-04T09:36:42.226Z,1015.49
2023-02-04T09:37:42.231Z,1015.51
2023-02-04T09:38:42.202Z,1015.52
2023-02-04T09:39:42.197Z,1015.56
2023-02-04T09:40:42.198Z,1015.57
2023-02-04T09:41:42.207Z,1015.58
2023-02-04T09:42:42.174Z,1015.60
2023-02-04T09:43:42.154Z,1015.62
2023-02-04T09:44:42.144Z,1015.65
2023-02-04T09:45:42.137Z,1015.67
2023-02-04T09:46:42.119Z,1015.67
2023-02-04T09:47:42.106Z,1015.68
2023-02-04T09:48:42.107Z,1015.69
2023-02-04T09:49:42.095Z,1015.70
2023-02-04T09:50:42.087Z,1015.72
2023-02-04T09:51:42.067Z,1015.75
2023-02-04T09:52:42.061Z,1015.77
2023-02-04T09:53:42.042Z,1015.80
2023-02-04T09:54:42.045Z,1015.81
2023-02-04T09:55:42.018Z,1015.81
2023-02-04T09:56:42.012Z,1015.84
2023-02-04T09:57:42.000Z,1015.88
2023-02-04T09:58:41.990Z,1015.90
2023-02-04T09:59:41.969Z,1015.89
2023-02-04T10:00:41.984Z,1015.88
2023-02-04T10:01:41.944Z,1015.88
2023-02-04T10:02:41.942Z,1015.89
2023-02-04T10:03:41.969Z,1015.89
2023-02-04T10:04:42.007Z,1015.90
2023-02-04T10:05:41.909Z,1015.89
2023-02-04T10:06:41.895Z,1015.89
2023-02-04T10:07:41.889Z,1015.91
2023-02-04T10:08:41.871Z,1015.91
2023-02-04T10:09:41.857Z,1015.91
2023-02-04T10:10:41.856Z,1015.91
2023-02-04T10:11:41.863Z,1015.91
2023-02-04T10:12:41.829Z,1015.91
2023-02-04T10:13:41.816Z,1015.91
2023-02-04T10:14:41.851Z,1015.92
2023-02-04T10:15:41.793Z,1015.93
2023-02-04T10:16:41.828Z,1015.94
2023-02-04T10:17:41.771Z,1015.95
2023-02-04T10:18:41.775Z,1015.97
2023-02-04T10:19:41.832Z,1015.97
2023-02-04T10:20:41.748Z,1015.97
2023-02-04T10:21:41.734Z,1015.97
2023-02-04T10:22:41.729Z,1015.98
2023-02-04T10:23:41.708Z,1015.99
2023-02-04T10:24:41.710Z,1016.01
2023-02-04T10:25:41.685Z,1016.03
2023-02-04T10:26:41.685Z,1016.05
2023-02-04T10:27:41.684Z,1016.07
2023-02-04T10:28:41.664Z,1016.08
2023-02-04T10:29:41.654Z,1016.07
2023-02-04T10:30:41.761Z,1016.08
2023-02-04T10:31:41.736Z,1016.08
2023-02-04T10:32:41.647Z,1016.08
2023-02-04T10:33:41.620Z,1016.09
2023-02-04T10:34:41.604Z,1016.10
2023-02-04T10:35:41.671Z,1016.12
2023-02-04T10:36:41.584Z,1016.11
2023-02-04T10:37:41.579Z,1016.11
2023-02-04T10:38:41.569Z,1016.12
2023-02-04T10:39:41.554Z,1016.14
2023-02-04T10:40:41.551Z,1016.14
2023-02-04T10:41:41.528Z,1016.14
2023-02-04T10:42:41.523Z,1016.14
2023-02-04T10:43:41.509Z,1016.15
2023-02-04T10:44:41.512Z,1016.16
2023-02-04T10:45:41.489Z,1016.16
2023-02-04T10:46:41.485Z,1016.15
2023-02-04T10:47:41.466Z,1016.16
2023-02-04T10:48:41.461Z,1016.17
2023-02-04T10:49:41.453Z,1016.17
2023-02-04T10:50:41.444Z,1016.17
2023-02-04T10:51:41.430Z,1016.18
2023-02-04T10:52:41.428Z,1016.17
2023-02-04T10:53:41.414Z,1016.18
2023-02-04T10:54:41.404Z,1016.17
2023-02-04T10:55:41.387Z,1016.17
2023-02-04T10:56:41.379Z,1016.17
2023-02-04T10:57:41.371Z,1016.17
2023-02-04T10:58:41.363Z,1016.17
2023-02-04T10:59:41.355Z,1016.19
2023-02-04T11:00:41.343Z,1016.19
2023-02-04T11:01:41.389Z,1016.19
2023-02-04T11:02:41.326Z,1016.18
2023-02-04T11:03:41.331Z,1016.20
2023-02-04T11:04:41.305Z,1016.19
2023-02-04T11:05:41.280Z,1016.21
2023-02-04T11:06:41.278Z,1016.24
2023-02-04T11:07:41.267Z,1016.27
2023-02-04T11:08:41.261Z,1016.28
2023-02-04T11:09:41.248Z,1016.29
2023-02-04T11:10:41.236Z,1016.30
2023-02-04T11:11:41.223Z,1016.32
2023-02-04T11:12:41.227Z,1016.30
2023-02-04T11:13:41.207Z,1016.30
2023-02-04T11:14:41.221Z,1016.30
2023-02-04T11:15:41.261Z,1016.29
2023-02-04T11:16:41.177Z,1016.30
2023-02-04T11:17:41.162Z,1016.32
2023-02-04T11:18:41.155Z,1016.34
2023-02-04T11:19:41.190Z,1016.35
2023-02-04T11:20:41.134Z,1016.34
2023-02-04T11:21:41.121Z,1016.34
2023-02-04T11:22:41.116Z,1016.34
2023-02-04T11:23:41.106Z,1016.33
2023-02-04T11:24:41.107Z,1016.34
2023-02-04T11:25:41.080Z,1016.34
2023-02-04T11:26:41.072Z,1016.32
2023-02-04T11:27:41.186Z,1016.32
2023-02-04T11:28:41.046Z,1016.32
2023-02-04T11:29:41.072Z,1016.32
2023-02-04T11:30:41.099Z,1016.32
2023-02-04T11:31:41.203Z,1016.32
2023-02-04T11:32:41.014Z,1016.32
2023-02-04T11:33:40.991Z,1016.33
2023-02-04T11:34:41.027Z,1016.32
2023-02-04T11:35:40.976Z,1016.29
2023-02-04T11:36:40.968Z,1016.29
2023-02-04T11:37:40.954Z,1016.28
2023-02-04T11:38:40.948Z,1016.29
2023-02-04T11:39:40.951Z,1016.29
2023-02-04T11:40:40.931Z,1016.30
2023-02-04T11:41:40.908Z,1016.30
2023-02-04T11:42:40.906Z,1016.34
2023-02-04T11:43:40.886Z,1016.33
2023-02-04T11:44:40.893Z,1016.35
2023-02-04T11:45:40.862Z,1016.34
2023-02-04T11:46:40.862Z,1016.34
2023-02-04T11:47:40.856Z,1016.34
2023-02-04T11:48:40.848Z,1016.35
2023-02-04T11:49:40.838Z,1016.37
2023-02-04T11:50:40.822Z,1016.40
2023-02-04T11:51:40.802Z,1016.41
2023-02-04T11:52:40.797Z,1016.42
2023-02-04T11:53:40.806Z,1016.42
2023-02-04T11:54:40.795Z,1016.42
2023-02-04T11:55:40.791Z,1016.42
2023-02-04T11:56:40.788Z,1016.41
2023-02-04T11:57:40.750Z,1016.40
2023-02-04T11:58:40.749Z,1016.39
2023-02-04T11:59:40.732Z,1016.38
2023-02-04T12:00:40.720Z,1016.39
2023-02-04T12:01:40.698Z,1016.39
2023-02-04T12:02:40.706Z,1016.41
2023-02-04T12:03:40.714Z,1016.41
2023-02-04T12:04:40.715Z,1016.39
2023-02-04T12:05:40.684Z,1016.37
2023-02-04T12:06:40.647Z,1016.37